sensor_id;sensor_type;location;lat;lon;timestamp;pressure;altitude;pressure_sealevel;temperature;humidity
7337;BME280;54510;42.016;23.098;2022-11-18T00:00:51;-21555.13;;;15.32;68.09
7337;BME280;54510;42.016;23.098;2022-11-18T00:03:17;-21553.47;;;15.26;68.49
7337;BME280;54510;42.016;23.098;2022-11-18T00:05:43;-21552.78;;;15.23;68.16
7337;BME280;54510;42.016;23.098;2022-11-18T00:08:16;-21556.22;;;15.36;67.57
7337;BME280;54510;42.016;23.098;2022-11-18T00:10:41;-21557.88;;;15.42;67.26
7337;BME280;54510;42.016;23.098;2022-11-18T00:13:10;-21546.16;;;14.99;67.98
7337;BME280;54510;42.016;23.098;2022-11-18T00:16:08;-21544.78;;;14.94;68.04
7337;BME280;54510;42.016;23.098;2022-11-18T00:18:35;-21548.38;;;15.07;68.10
7337;BME280;54510;42.016;23.098;2022-11-18T00:21:01;-21542.84;;;14.87;68.35
7337;BME280;54510;42.016;23.098;2022-11-18T00:23:27;-21533.31;;;14.52;68.93
7337;BME280;54510;42.016;23.098;2022-11-18T00:25:53;-21531.53;;;14.45;69.07
7337;BME280;54510;42.016;23.098;2022-11-18T00:28:18;-21534.28;;;14.55;69.79
7337;BME280;54510;42.016;23.098;2022-11-18T00:30:43;-21542.97;;;14.87;68.75
7337;BME280;54510;42.016;23.098;2022-11-18T00:33:09;-21541.31;;;14.81;68.72
7337;BME280;54510;42.016;23.098;2022-11-18T00:35:34;-21544.38;;;14.92;68.09
7337;BME280;54510;42.016;23.098;2022-11-18T00:38:00;-21542.28;;;14.85;68.58
7337;BME280;54510;42.016;23.098;2022-11-18T00:40:25;-21537.59;;;14.68;68.83
7337;BME280;54510;42.016;23.098;2022-11-18T00:42:51;-21542.00;;;14.84;67.71
7337;BME280;54510;42.016;23.098;2022-11-18T00:45:17;-21538.84;;;14.72;68.29
7337;BME280;54510;42.016;23.098;2022-11-18T00:47:43;-21546.28;;;14.99;68.05
7337;BME280;54510;42.016;23.098;2022-11-18T00:50:08;-21553.47;;;15.26;67.05
7337;BME280;54510;42.016;23.098;2022-11-18T00:52:34;-21553.88;;;15.27;66.24
7337;BME280;54510;42.016;23.098;2022-11-18T00:54:59;-21550.16;;;15.14;66.35
7337;BME280;54510;42.016;23.098;2022-11-18T00:57:25;-21553.88;;;15.27;66.50
7337;BME280;54510;42.016;23.098;2022-11-18T00:59:50;-21551.81;;;15.20;66.40
7337;BME280;54510;42.016;23.098;2022-11-18T01:02:16;-21539.13;;;14.73;67.73
7337;BME280;54510;42.016;23.098;2022-11-18T01:04:41;-21538.16;;;14.70;68.00
7337;BME280;54510;42.016;23.098;2022-11-18T01:07:06;-21524.59;;;14.20;68.65
7337;BME280;54510;42.016;23.098;2022-11-18T01:09:32;-21524.06;;;14.18;69.02
7337;BME280;54510;42.016;23.098;2022-11-18T01:11:57;-21522.53;;;14.12;69.87
7337;BME280;54510;42.016;23.098;2022-11-18T01:14:41;-21529.84;;;14.39;68.91
7337;BME280;54510;42.016;23.098;2022-11-18T01:17:07;-21522.25;;;14.11;69.19
7337;BME280;54510;42.016;23.098;2022-11-18T01:19:33;-21529.03;;;14.36;69.18
7337;BME280;54510;42.016;23.098;2022-11-18T01:21:59;-21534.00;;;14.54;68.54
7337;BME280;54510;42.016;23.098;2022-11-18T01:24:31;-21539.25;;;14.74;67.78
7337;BME280;54510;42.016;23.098;2022-11-18T01:26:58;-21538.16;;;14.70;67.61
7337;BME280;54510;42.016;23.098;2022-11-18T01:29:24;-21536.34;;;14.63;68.26
7337;BME280;54510;42.016;23.098;2022-11-18T01:31:50;-21532.91;;;14.50;68.01
7337;BME280;54510;42.016;23.098;2022-11-18T01:34:15;-21536.63;;;14.64;67.93
7337;BME280;54510;42.016;23.098;2022-11-18T01:36:40;-21547.94;;;15.06;67.29
7337;BME280;54510;42.016;23.098;2022-11-18T01:39:06;-21551.41;;;15.18;66.59
7337;BME280;54510;42.016;23.098;2022-11-18T01:41:31;-21545.75;;;14.97;66.54
7337;BME280;54510;42.016;23.098;2022-11-18T01:44:50;-21544.22;;;14.92;66.78
7337;BME280;54510;42.016;23.098;2022-11-18T01:46:50;-21541.19;;;14.81;66.83
7337;BME280;54510;42.016;23.098;2022-11-18T01:49:16;-21546.44;;;15.00;66.82
7337;BME280;54510;42.016;23.098;2022-11-18T01:54:14;-21540.78;;;14.79;66.93
7337;BME280;54510;42.016;23.098;2022-11-18T01:56:49;-21542.00;;;14.84;67.70
7337;BME280;54510;42.016;23.098;2022-11-18T01:59:19;-21546.72;;;15.01;67.01
7337;BME280;54510;42.016;23.098;2022-11-18T02:01:46;-21544.22;;;14.92;67.02
7337;BME280;54510;42.016;23.098;2022-11-18T02:04:13;-21533.72;;;14.53;68.52
7337;BME280;54510;42.016;23.098;2022-11-18T02:06:39;-21537.72;;;14.68;68.10
7337;BME280;54510;42.016;23.098;2022-11-18T02:09:05;-21548.38;;;15.07;67.88
7337;BME280;54510;42.016;23.098;2022-11-18T02:11:31;-21545.47;;;14.96;67.63
7337;BME280;54510;42.016;23.098;2022-11-18T02:14:18;-21534.41;;;14.56;68.94
7337;BME280;54510;42.016;23.098;2022-11-18T02:30:22;-21552.63;;;15.23;68.34
7337;BME280;54510;42.016;23.098;2022-11-18T02:32:53;-21537.44;;;14.67;69.33
7337;BME280;54510;42.016;23.098;2022-11-18T02:35:37;-21544.50;;;14.93;70.00
7337;BME280;54510;42.016;23.098;2022-11-18T02:38:14;-21549.75;;;15.12;69.17
7337;BME280;54510;42.016;23.098;2022-11-18T02:40:45;-21539.66;;;14.75;68.92
7337;BME280;54510;42.016;23.098;2022-11-18T02:43:51;-21540.34;;;14.78;71.58
7337;BME280;54510;42.016;23.098;2022-11-18T02:46:31;-21545.03;;;14.95;70.22
7337;BME280;54510;42.016;23.098;2022-11-18T02:48:58;-21542.16;;;14.84;70.10
7337;BME280;54510;42.016;23.098;2022-11-18T02:51:27;-21549.47;;;15.11;69.85
7337;BME280;54510;42.016;23.098;2022-11-18T02:53:57;-21549.06;;;15.10;68.85
7337;BME280;54510;42.016;23.098;2022-11-18T02:56:25;-21550.31;;;15.14;69.66
7337;BME280;54510;42.016;23.098;2022-11-18T02:58:51;-21557.88;;;15.42;68.72
7337;BME280;54510;42.016;23.098;2022-11-18T03:01:25;-21567.69;;;15.78;67.57
7337;BME280;54510;42.016;23.098;2022-11-18T03:03:52;-21555.69;;;15.34;68.27
7337;BME280;54510;42.016;23.098;2022-11-18T03:15:05;-21562.44;;;15.59;66.74
7337;BME280;54510;42.016;23.098;2022-11-18T03:20:24;-21556.09;;;15.35;66.61
7337;BME280;54510;42.016;23.098;2022-11-18T03:23:02;-21548.09;;;15.06;67.32
7337;BME280;54510;42.016;23.098;2022-11-18T03:25:57;-21543.41;;;14.89;68.31
7337;BME280;54510;42.016;23.098;2022-11-18T03:31:19;-21550.72;;;15.16;68.66
7337;BME280;54510;42.016;23.098;2022-11-18T03:33:50;-21539.38;;;14.74;69.25
7337;BME280;54510;42.016;23.098;2022-11-18T03:36:20;-21544.63;;;14.93;70.24
7337;BME280;54510;42.016;23.098;2022-11-18T03:38:49;-21533.31;;;14.52;69.53
7337;BME280;54510;42.016;23.098;2022-11-18T03:41:16;-21526.41;;;14.27;70.10
7337;BME280;54510;42.016;23.098;2022-11-18T03:43:48;-21523.91;;;14.17;70.64
7337;BME280;54510;42.016;23.098;2022-11-18T03:46:21;-21531.53;;;14.45;69.68
7337;BME280;54510;42.016;23.098;2022-11-18T03:48:52;-21537.03;;;14.66;69.98
7337;BME280;54510;42.016;23.098;2022-11-18T03:51:25;-21542.44;;;14.85;69.22
7337;BME280;54510;42.016;23.098;2022-11-18T03:53:58;-21542.44;;;14.85;68.61
7337;BME280;54510;42.016;23.098;2022-11-18T03:56:29;-21529.03;;;14.36;69.87
7337;BME280;54510;42.016;23.098;2022-11-18T03:59:10;-21543.25;;;14.88;68.98
7337;BME280;54510;42.016;23.098;2022-11-18T04:01:44;-21546.44;;;15.00;67.77
7337;BME280;54510;42.016;23.098;2022-11-18T04:04:13;-21540.91;;;14.80;68.00
7337;BME280;54510;42.016;23.098;2022-11-18T04:09:10;-21547.13;;;15.02;67.02
7337;BME280;54510;42.016;23.098;2022-11-18T04:11:43;-21536.91;;;14.65;67.31
7337;BME280;54510;42.016;23.098;2022-11-18T04:14:47;-21525.56;;;14.23;70.16
7337;BME280;54510;42.016;23.098;2022-11-18T04:17:19;-21533.31;;;14.52;70.48
7337;BME280;54510;42.016;23.098;2022-11-18T04:19:45;-21537.72;;;14.68;69.67
7337;BME280;54510;42.016;23.098;2022-11-18T04:22:11;-21536.22;;;14.62;69.95
7337;BME280;54510;42.016;23.098;2022-11-18T04:24:37;-21534.00;;;14.54;69.26
7337;BME280;54510;42.016;23.098;2022-11-18T04:27:03;-21531.78;;;14.46;69.88
7337;BME280;54510;42.016;23.098;2022-11-18T04:29:30;-21533.19;;;14.51;69.93
7337;BME280;54510;42.016;23.098;2022-11-18T04:31:55;-21532.63;;;14.49;70.24
7337;BME280;54510;42.016;23.098;2022-11-18T04:34:21;-21536.50;;;14.63;69.45
7337;BME280;54510;42.016;23.098;2022-11-18T04:36:46;-21531.09;;;14.44;69.04
7337;BME280;54510;42.016;23.098;2022-11-18T04:39:12;-21534.00;;;14.54;68.90
7337;BME280;54510;42.016;23.098;2022-11-18T04:41:37;-21524.88;;;14.21;69.06
7337;BME280;54510;42.016;23.098;2022-11-18T04:44:21;-21528.47;;;14.34;69.70
7337;BME280;54510;42.016;23.098;2022-11-18T04:46:47;-21537.31;;;14.67;68.99
7337;BME280;54510;42.016;23.098;2022-11-18T04:49:13;-21534.00;;;14.54;69.23
7337;BME280;54510;42.016;23.098;2022-11-18T04:51:40;-21514.66;;;13.83;70.48
7337;BME280;54510;42.016;23.098;2022-11-18T04:54:07;-21533.72;;;14.53;69.67
7337;BME280;54510;42.016;23.098;2022-11-18T04:56:33;-21538.16;;;14.70;68.29
7337;BME280;54510;42.016;23.098;2022-11-18T04:58:59;-21532.34;;;14.48;68.66
7337;BME280;54510;42.016;23.098;2022-11-18T05:01:26;-21520.88;;;14.06;68.81
7337;BME280;54510;42.016;23.098;2022-11-18T05:03:52;-21528.47;;;14.34;70.17
7337;BME280;54510;42.016;23.098;2022-11-18T05:06:18;-21535.94;;;14.61;68.92
7337;BME280;54510;42.016;23.098;2022-11-18T05:08:43;-21543.81;;;14.90;67.58
7337;BME280;54510;42.016;23.098;2022-11-18T05:11:08;-21545.31;;;14.96;67.37
7337;BME280;54510;42.016;23.098;2022-11-18T05:13:53;-21541.47;;;14.82;67.59
7337;BME280;54510;42.016;23.098;2022-11-18T05:16:18;-21538.16;;;14.70;67.80
7337;BME280;54510;42.016;23.098;2022-11-18T05:18:44;-21539.38;;;14.74;67.72
7337;BME280;54510;42.016;23.098;2022-11-18T05:21:10;-21539.38;;;14.74;67.70
7337;BME280;54510;42.016;23.098;2022-11-18T05:23:35;-21541.72;;;14.83;67.16
7337;BME280;54510;42.016;23.098;2022-11-18T05:26:08;-21538.41;;;14.71;66.93
7337;BME280;54510;42.016;23.098;2022-11-18T05:28:34;-21526.69;;;14.28;68.58
7337;BME280;54510;42.016;23.098;2022-11-18T05:31:14;-21529.03;;;14.36;70.08
7337;BME280;54510;42.016;23.098;2022-11-18T05:33:41;-21536.50;;;14.63;68.90
7337;BME280;54510;42.016;23.098;2022-11-18T05:36:09;-21535.25;;;14.59;68.36
7337;BME280;54510;42.016;23.098;2022-11-18T05:38:35;-21526.13;;;14.26;68.45
7337;BME280;54510;42.016;23.098;2022-11-18T05:41:01;-21533.44;;;14.52;68.53
7337;BME280;54510;42.016;23.098;2022-11-18T05:43:27;-21529.59;;;14.38;68.78
7337;BME280;54510;42.016;23.098;2022-11-18T05:45:53;-21533.59;;;14.53;68.16
7337;BME280;54510;42.016;23.098;2022-11-18T05:48:19;-21535.53;;;14.60;67.60
7337;BME280;54510;42.016;23.098;2022-11-18T05:50:46;-21536.34;;;14.63;67.50
7337;BME280;54510;42.016;23.098;2022-11-18T05:53:13;-21535.09;;;14.58;67.45
7337;BME280;54510;42.016;23.098;2022-11-18T05:56:03;-21539.81;;;14.76;66.79
7337;BME280;54510;42.016;23.098;2022-11-18T05:58:30;-21539.13;;;14.73;66.31
7337;BME280;54510;42.016;23.098;2022-11-18T06:01:00;-21537.88;;;14.69;65.99
7337;BME280;54510;42.016;23.098;2022-11-18T06:03:28;-21540.22;;;14.77;66.43
7337;BME280;54510;42.016;23.098;2022-11-18T06:05:57;-21524.88;;;14.21;67.67
7337;BME280;54510;42.016;23.098;2022-11-18T06:08:28;-21526.94;;;14.29;69.00
7337;BME280;54510;42.016;23.098;2022-11-18T06:10:55;-21526.53;;;14.27;68.87
7337;BME280;54510;42.016;23.098;2022-11-18T06:13:29;-21529.59;;;14.38;68.46
7337;BME280;54510;42.016;23.098;2022-11-18T06:15:56;-21526.25;;;14.26;69.19
7337;BME280;54510;42.016;23.098;2022-11-18T06:18:24;-21533.19;;;14.51;68.97
7337;BME280;54510;42.016;23.098;2022-11-18T06:20:53;-21531.94;;;14.47;68.36
7337;BME280;54510;42.016;23.098;2022-11-18T06:23:19;-21532.34;;;14.48;68.75
7337;BME280;54510;42.016;23.098;2022-11-18T06:25:45;-21538.16;;;14.70;68.68
7337;BME280;54510;42.016;23.098;2022-11-18T06:28:13;-21540.63;;;14.79;68.05
7337;BME280;54510;42.016;23.098;2022-11-18T06:30:39;-21535.94;;;14.61;67.54
7337;BME280;54510;42.016;23.098;2022-11-18T06:33:05;-21534.84;;;14.57;68.57
7337;BME280;54510;42.016;23.098;2022-11-18T06:35:31;-21534.28;;;14.55;68.11
7337;BME280;54510;42.016;23.098;2022-11-18T06:37:57;-21535.09;;;14.58;67.48
7337;BME280;54510;42.016;23.098;2022-11-18T06:40:22;-21529.31;;;14.37;68.28
7337;BME280;54510;42.016;23.098;2022-11-18T06:42:48;-21533.19;;;14.51;68.38
7337;BME280;54510;42.016;23.098;2022-11-18T06:45:31;-21535.09;;;14.58;67.43
7337;BME280;54510;42.016;23.098;2022-11-18T06:47:57;-21527.91;;;14.32;68.62
7337;BME280;54510;42.016;23.098;2022-11-18T06:50:24;-21533.88;;;14.54;67.63
7337;BME280;54510;42.016;23.098;2022-11-18T06:52:49;-21533.72;;;14.53;67.20
7337;BME280;54510;42.016;23.098;2022-11-18T06:55:15;-21531.38;;;14.45;66.44
7337;BME280;54510;42.016;23.098;2022-11-18T06:57:40;-21522.25;;;14.11;67.22
7337;BME280;54510;42.016;23.098;2022-11-18T07:00:06;-21524.59;;;14.20;67.77
7337;BME280;54510;42.016;23.098;2022-11-18T07:02:34;-21513.81;;;13.80;68.74
7337;BME280;54510;42.016;23.098;2022-11-18T07:05:00;-21525.72;;;14.24;69.45
7337;BME280;54510;42.016;23.098;2022-11-18T07:07:25;-21544.50;;;14.93;67.31
7337;BME280;54510;42.016;23.098;2022-11-18T07:09:51;-21539.81;;;14.76;66.49
7337;BME280;54510;42.016;23.098;2022-11-18T07:12:16;-21530.97;;;14.43;66.98
7337;BME280;54510;42.016;23.098;2022-11-18T07:14:42;-21539.38;;;14.74;67.06
7337;BME280;54510;42.016;23.098;2022-11-18T07:17:07;-21535.25;;;14.59;66.20
7337;BME280;54510;42.016;23.098;2022-11-18T07:19:32;-21536.06;;;14.62;67.78
7337;BME280;54510;42.016;23.098;2022-11-18T07:21:58;-21537.31;;;14.67;66.39
7337;BME280;54510;42.016;23.098;2022-11-18T07:24:24;-21548.09;;;15.06;66.72
7337;BME280;54510;42.016;23.098;2022-11-18T07:26:51;-21544.22;;;14.92;66.41
7337;BME280;54510;42.016;23.098;2022-11-18T07:29:17;-21538.69;;;14.72;66.88
7337;BME280;54510;42.016;23.098;2022-11-18T07:31:42;-21545.59;;;14.97;67.02
7337;BME280;54510;42.016;23.098;2022-11-18T07:34:08;-21556.78;;;15.38;65.88
7337;BME280;54510;42.016;23.098;2022-11-18T07:36:33;-21555.00;;;15.31;64.81
7337;BME280;54510;42.016;23.098;2022-11-18T07:39:00;-21555.25;;;15.32;64.78
7337;BME280;54510;42.016;23.098;2022-11-18T07:41:27;-21538.69;;;14.72;66.39
7337;BME280;54510;42.016;23.098;2022-11-18T07:43:54;-21538.28;;;14.70;66.80
7337;BME280;54510;42.016;23.098;2022-11-18T07:46:25;-21537.88;;;14.69;67.48
7337;BME280;54510;42.016;23.098;2022-11-18T07:48:53;-21540.34;;;14.78;66.56
7337;BME280;54510;42.016;23.098;2022-11-18T07:51:21;-21542.16;;;14.84;66.89
7337;BME280;54510;42.016;23.098;2022-11-18T07:53:48;-21545.31;;;14.96;66.08
7337;BME280;54510;42.016;23.098;2022-11-18T07:56:14;-21545.59;;;14.97;65.84
7337;BME280;54510;42.016;23.098;2022-11-18T07:58:40;-21548.91;;;15.09;66.63
7337;BME280;54510;42.016;23.098;2022-11-18T08:01:07;-21553.59;;;15.26;65.61
7337;BME280;54510;42.016;23.098;2022-11-18T08:03:33;-21547.81;;;15.05;66.26
7337;BME280;54510;42.016;23.098;2022-11-18T08:05:59;-21565.34;;;15.69;65.48
7337;BME280;54510;42.016;23.098;2022-11-18T08:08:25;-21561.63;;;15.56;65.66
7337;BME280;54510;42.016;23.098;2022-11-18T08:10:54;-21562.59;;;15.59;65.79
7337;BME280;54510;42.016;23.098;2022-11-18T08:13:20;-21565.22;;;15.69;65.44
7337;BME280;54510;42.016;23.098;2022-11-18T08:15:45;-21572.78;;;15.97;64.63
7337;BME280;54510;42.016;23.098;2022-11-18T08:18:11;-21575.69;;;16.07;64.12
7337;BME280;54510;42.016;23.098;2022-11-18T08:20:36;-21572.09;;;15.94;64.28
7337;BME280;54510;42.016;23.098;2022-11-18T08:23:01;-21568.66;;;15.82;64.75
7337;BME280;54510;42.016;23.098;2022-11-18T08:25:27;-21575.81;;;16.08;64.41
7337;BME280;54510;42.016;23.098;2022-11-18T08:27:53;-21570.16;;;15.87;64.44
7337;BME280;54510;42.016;23.098;2022-11-18T08:30:19;-21571.53;;;15.92;63.97
7337;BME280;54510;42.016;23.098;2022-11-18T08:32:44;-21587.66;;;16.51;63.54
7337;BME280;54510;42.016;23.098;2022-11-18T08:35:10;-21586.16;;;16.46;63.69
7337;BME280;54510;42.016;23.098;2022-11-18T08:37:35;-21576.25;;;16.09;65.26
7337;BME280;54510;42.016;23.098;2022-11-18T08:40:00;-21583.69;;;16.37;64.43
7337;BME280;54510;42.016;23.098;2022-11-18T08:42:26;-21587.53;;;16.51;63.87
7337;BME280;54510;42.016;23.098;2022-11-18T08:44:51;-21583.69;;;16.37;63.91
7337;BME280;54510;42.016;23.098;2022-11-18T08:47:17;-21584.09;;;16.38;64.17
7337;BME280;54510;42.016;23.098;2022-11-18T08:49:42;-21586.97;;;16.49;64.41
7337;BME280;54510;42.016;23.098;2022-11-18T08:52:08;-21596.09;;;16.82;64.15
7337;BME280;54510;42.016;23.098;2022-11-18T08:54:34;-21600.22;;;16.97;63.70
7337;BME280;54510;42.016;23.098;2022-11-18T08:56:59;-21601.59;;;17.03;63.92
7337;BME280;54510;42.016;23.098;2022-11-18T08:59:25;-21606.28;;;17.20;63.80
7337;BME280;54510;42.016;23.098;2022-11-18T09:01:50;-21608.88;;;17.29;63.09
7337;BME280;54510;42.016;23.098;2022-11-18T09:04:16;-21612.06;;;17.41;62.37
7337;BME280;54510;42.016;23.098;2022-11-18T09:06:41;-21608.19;;;17.27;62.31
7337;BME280;54510;42.016;23.098;2022-11-18T09:09:07;-21609.97;;;17.33;61.92
7337;BME280;54510;42.016;23.098;2022-11-18T09:11:34;-21609.44;;;17.31;62.45
7337;BME280;54510;42.016;23.098;2022-11-18T09:14:00;-21616.19;;;17.56;62.07
7337;BME280;54510;42.016;23.098;2022-11-18T09:16:28;-21616.88;;;17.59;61.88
7337;BME280;54510;42.016;23.098;2022-11-18T09:18:56;-21615.50;;;17.54;61.67
7337;BME280;54510;42.016;23.098;2022-11-18T09:21:22;-21608.34;;;17.27;62.60
7337;BME280;54510;42.016;23.098;2022-11-18T09:23:47;-21601.03;;;17.01;63.54
7337;BME280;54510;42.016;23.098;2022-11-18T09:26:15;-21606.00;;;17.19;63.26
7337;BME280;54510;42.016;23.098;2022-11-18T09:28:41;-21602.69;;;17.07;63.36
7337;BME280;54510;42.016;23.098;2022-11-18T09:31:12;-21598.28;;;16.90;64.58
7337;BME280;54510;42.016;23.098;2022-11-18T09:33:38;-21604.75;;;17.14;64.09
7337;BME280;54510;42.016;23.098;2022-11-18T09:36:09;-21611.38;;;17.38;63.55
7337;BME280;54510;42.016;23.098;2022-11-18T09:38:35;-21613.00;;;17.45;63.21
7337;BME280;54510;42.016;23.098;2022-11-18T09:49:07;-21631.72;;;18.13;64.05
7337;BME280;54510;42.016;23.098;2022-11-18T09:51:39;-21642.44;;;18.53;63.10
7337;BME280;54510;42.016;23.098;2022-11-18T09:54:09;-21650.28;;;18.82;62.78
7337;BME280;54510;42.016;23.098;2022-11-18T09:56:37;-21656.75;;;19.06;62.59
7337;BME280;54510;42.016;23.098;2022-11-18T09:59:03;-21657.56;;;19.09;62.74
7337;BME280;54510;42.016;23.098;2022-11-18T10:01:29;-21664.00;;;19.32;62.19
7337;BME280;54510;42.016;23.098;2022-11-18T10:03:55;-21665.13;;;19.37;61.74
7337;BME280;54510;42.016;23.098;2022-11-18T10:06:25;-21663.75;;;19.31;61.92
7337;BME280;54510;42.016;23.098;2022-11-18T10:25:21;-21703.94;;;20.80;61.03
7337;BME280;54510;42.016;23.098;2022-11-18T10:27:48;-21711.31;;;21.07;58.74
7337;BME280;54510;42.016;23.098;2022-11-18T10:30:16;-21714.19;;;21.18;58.11
7337;BME280;54510;42.016;23.098;2022-11-18T10:33:03;-21722.69;;;21.49;56.51
7337;BME280;54510;42.016;23.098;2022-11-18T10:35:35;-21730.75;;;21.79;55.38
7337;BME280;54510;42.016;23.098;2022-11-18T10:38:15;-21740.19;;;22.14;54.49
7337;BME280;54510;42.016;23.098;2022-11-18T10:43:44;-21751.28;;;22.55;52.04
7337;BME280;54510;42.016;23.098;2022-11-18T10:46:29;-21756.88;;;22.76;51.40
7337;BME280;54510;42.016;23.098;2022-11-18T10:51:33;-21763.16;;;22.99;50.54
7337;BME280;54510;42.016;23.098;2022-11-18T10:54:12;-21765.75;;;23.09;49.99
7337;BME280;54510;42.016;23.098;2022-11-18T10:56:59;-21767.94;;;23.17;49.70
7337;BME280;54510;42.016;23.098;2022-11-18T10:59:34;-21777.50;;;23.52;48.77
7337;BME280;54510;42.016;23.098;2022-11-18T11:02:24;-21770.41;;;23.26;48.41
7337;BME280;54510;42.016;23.098;2022-11-18T11:04:56;-21780.91;;;23.65;47.87
7337;BME280;54510;42.016;23.098;2022-11-18T11:07:29;-21781.88;;;23.69;48.27
7337;BME280;54510;42.016;23.098;2022-11-18T11:12:38;-21772.56;;;23.34;48.23
7337;BME280;54510;42.016;23.098;2022-11-18T11:15:35;-21778.19;;;23.55;47.41
7337;BME280;54510;42.016;23.098;2022-11-18T11:18:12;-21778.72;;;23.57;47.59
7337;BME280;54510;42.016;23.098;2022-11-18T11:20:57;-21781.03;;;23.66;47.34
7337;BME280;54510;42.016;23.098;2022-11-18T11:23:24;-21779.13;;;23.58;47.55
7337;BME280;54510;42.016;23.098;2022-11-18T11:25:59;-21780.38;;;23.63;47.58
7337;BME280;54510;42.016;23.098;2022-11-18T11:28:44;-21775.03;;;23.43;48.09
7337;BME280;54510;42.016;23.098;2022-11-18T11:34:11;-21782.53;;;23.71;47.33
7337;BME280;54510;42.016;23.098;2022-11-18T11:37:15;-21786.09;;;23.84;47.19
7337;BME280;54510;42.016;23.098;2022-11-18T11:49:04;-21778.72;;;23.57;47.18
7337;BME280;54510;42.016;23.098;2022-11-18T11:56:28;-21777.38;;;23.52;47.74
7337;BME280;54510;42.016;23.098;2022-11-18T11:59:42;-21777.63;;;23.53;47.91
7337;BME280;54510;42.016;23.098;2022-11-18T12:04:41;-21772.44;;;23.34;48.40
7337;BME280;54510;42.016;23.098;2022-11-18T12:07:18;-21775.84;;;23.46;48.26
7337;BME280;54510;42.016;23.098;2022-11-18T12:10:19;-21770.13;;;23.25;49.23
7337;BME280;54510;42.016;23.098;2022-11-18T12:19:00;-21766.16;;;23.10;49.14
7337;BME280;54510;42.016;23.098;2022-11-18T12:26:42;-21764.81;;;23.05;49.33
7337;BME280;54510;42.016;23.098;2022-11-18T12:31:42;-21761.53;;;22.93;49.43
7337;BME280;54510;42.016;23.098;2022-11-18T12:36:43;-21760.97;;;22.91;49.83
7337;BME280;54510;42.016;23.098;2022-11-18T12:44:34;-21758.50;;;22.82;49.73
7337;BME280;54510;42.016;23.098;2022-11-18T12:47:01;-21760.97;;;22.91;49.12
7337;BME280;54510;42.016;23.098;2022-11-18T12:51:53;-21764.25;;;23.03;48.88
7337;BME280;54510;42.016;23.098;2022-11-18T12:56:53;-21749.22;;;22.48;49.91
7337;BME280;54510;42.016;23.098;2022-11-18T12:59:45;-21748.69;;;22.45;50.44
7337;BME280;54510;42.016;23.098;2022-11-18T13:04:36;-21749.22;;;22.48;50.21
7337;BME280;54510;42.016;23.098;2022-11-18T13:07:04;-21747.03;;;22.39;50.01
7337;BME280;54510;42.016;23.098;2022-11-18T13:09:52;-21754.00;;;22.65;50.03
7337;BME280;54510;42.016;23.098;2022-11-18T13:12:18;-21750.59;;;22.53;50.02
7337;BME280;54510;42.016;23.098;2022-11-18T13:14:44;-21741.84;;;22.20;51.35
7337;BME280;54510;42.016;23.098;2022-11-18T13:17:33;-21741.56;;;22.19;51.38
7337;BME280;54510;42.016;23.098;2022-11-18T13:20:33;-21756.34;;;22.74;50.62
7337;BME280;54510;42.016;23.098;2022-11-18T13:25:53;-21761.66;;;22.94;49.74
7337;BME280;54510;42.016;23.098;2022-11-18T13:33:37;-21744.84;;;22.31;51.30
7337;BME280;54510;42.016;23.098;2022-11-18T13:36:15;-21749.78;;;22.50;50.57
7337;BME280;54510;42.016;23.098;2022-11-18T13:41:21;-21747.59;;;22.41;50.50
7337;BME280;54510;42.016;23.098;2022-11-18T13:43:49;-21742.13;;;22.21;50.92
7337;BME280;54510;42.016;23.098;2022-11-18T13:46:18;-21742.13;;;22.21;51.76
7337;BME280;54510;42.016;23.098;2022-11-18T13:48:54;-21745.66;;;22.34;51.36
7337;BME280;54510;42.016;23.098;2022-11-18T13:51:21;-21746.50;;;22.37;50.55
7337;BME280;54510;42.016;23.098;2022-11-18T13:53:47;-21745.53;;;22.34;51.19
7337;BME280;54510;42.016;23.098;2022-11-18T13:56:23;-21742.94;;;22.24;50.48
7337;BME280;54510;42.016;23.098;2022-11-18T14:01:22;-21748.13;;;22.43;50.89
7337;BME280;54510;42.016;23.098;2022-11-18T14:04:02;-21754.00;;;22.65;50.22
7337;BME280;54510;42.016;23.098;2022-11-18T14:06:30;-21760.69;;;22.90;50.00
7337;BME280;54510;42.016;23.098;2022-11-18T14:09:16;-21750.31;;;22.52;50.01
7337;BME280;54510;42.016;23.098;2022-11-18T14:11:45;-21754.81;;;22.68;50.04
7337;BME280;54510;42.016;23.098;2022-11-18T14:14:27;-21755.38;;;22.70;49.74
7337;BME280;54510;42.016;23.098;2022-11-18T14:16:52;-21748.00;;;22.43;50.46
7337;BME280;54510;42.016;23.098;2022-11-18T14:19:29;-21754.28;;;22.66;50.33
7337;BME280;54510;42.016;23.098;2022-11-18T14:22:05;-21745.13;;;22.32;50.68
7337;BME280;54510;42.016;23.098;2022-11-18T14:24:35;-21756.19;;;22.73;49.95
7337;BME280;54510;42.016;23.098;2022-11-18T14:29:58;-21760.16;;;22.88;50.05
7337;BME280;54510;42.016;23.098;2022-11-18T14:32:26;-21766.97;;;23.13;48.85
7337;BME280;54510;42.016;23.098;2022-11-18T14:35:01;-21768.91;;;23.20;48.82
7337;BME280;54510;42.016;23.098;2022-11-18T14:37:26;-21763.97;;;23.02;48.68
7337;BME280;54510;42.016;23.098;2022-11-18T14:39:56;-21770.41;;;23.26;48.40
7337;BME280;54510;42.016;23.098;2022-11-18T14:42:23;-21774.09;;;23.40;48.13
7337;BME280;54510;42.016;23.098;2022-11-18T14:44:49;-21774.50;;;23.41;48.23
7337;BME280;54510;42.016;23.098;2022-11-18T14:47:22;-21767.25;;;23.14;48.76
7337;BME280;54510;42.016;23.098;2022-11-18T14:49:49;-21752.50;;;22.60;49.62
7337;BME280;54510;42.016;23.098;2022-11-18T14:52:14;-21749.78;;;22.50;50.10
7337;BME280;54510;42.016;23.098;2022-11-18T14:54:39;-21746.34;;;22.37;50.26
7337;BME280;54510;42.016;23.098;2022-11-18T14:57:05;-21737.75;;;22.05;51.83
7337;BME280;54510;42.016;23.098;2022-11-18T14:59:30;-21745.13;;;22.32;51.09
7337;BME280;54510;42.016;23.098;2022-11-18T15:01:56;-21745.13;;;22.32;50.46
7337;BME280;54510;42.016;23.098;2022-11-18T15:04:23;-21742.25;;;22.22;51.05
7337;BME280;54510;42.016;23.098;2022-11-18T15:06:49;-21741.03;;;22.17;51.20
7337;BME280;54510;42.016;23.098;2022-11-18T15:09:14;-21739.94;;;22.13;51.43
7337;BME280;54510;42.016;23.098;2022-11-18T15:11:40;-21733.38;;;21.89;51.36
7337;BME280;54510;42.016;23.098;2022-11-18T15:14:05;-21730.34;;;21.78;52.21